createdAt,value
2023-04-18T00:01:31.937Z,7.45
2023-04-18T00:03:58.685Z,6.53
2023-04-18T00:06:25.936Z,9.38
2023-04-18T00:08:52.510Z,7.93
2023-04-18T00:11:19.056Z,9.30
2023-04-18T00:13:47.367Z,9.93
2023-04-18T00:16:14.191Z,9.68
2023-04-18T00:18:40.767Z,10.48
2023-04-18T00:21:08.596Z,10.35
2023-04-18T00:23:36.054Z,9.32
2023-04-18T00:26:03.146Z,10.98
2023-04-18T00:28:29.764Z,9.85
2023-04-18T00:30:56.593Z,10.48
2023-04-18T00:33:23.310Z,10.82
2023-04-18T00:35:49.862Z,10.98
2023-04-18T00:38:16.487Z,11.73
2023-04-18T00:40:43.060Z,11.63
2023-04-18T00:43:09.632Z,11.40
2023-04-18T00:45:37.048Z,10.95
2023-04-18T00:48:03.680Z,12.73
2023-04-18T00:50:30.997Z,12.20
2023-04-18T00:52:58.298Z,13.07
2023-04-18T00:55:25.024Z,12.10
2023-04-18T00:57:52.214Z,12.05
2023-04-18T01:00:18.969Z,13.07
2023-04-18T01:02:47.128Z,12.15
2023-04-18T01:05:13.891Z,11.50
2023-04-18T01:07:43.488Z,13.68
2023-04-18T01:10:11.021Z,14.77
2023-04-18T01:12:37.764Z,14.85
2023-04-18T01:15:07.559Z,15.75
2023-04-18T01:17:38.466Z,16.35
2023-04-18T01:20:06.483Z,16.23
2023-04-18T01:22:33.451Z,18.27
2023-04-18T01:25:00.033Z,15.35
2023-04-18T01:27:26.569Z,16.50
2023-04-18T01:29:53.127Z,15.55
2023-04-18T01:32:20.543Z,15.57
2023-04-18T01:34:47.373Z,17.35
2023-04-18T01:37:13.964Z,17.23
2023-04-18T01:39:40.512Z,19.17
2023-04-18T01:42:07.080Z,19.23
2023-04-18T01:44:33.757Z,17.10
2023-04-18T01:47:00.308Z,16.40
2023-04-18T01:49:26.947Z,16.92
2023-04-18T01:51:53.484Z,17.27
2023-04-18T01:54:20.074Z,14.93
2023-04-18T01:56:46.652Z,15.88
2023-04-18T01:59:13.201Z,18.13
2023-04-18T02:01:39.771Z,18.13
2023-04-18T02:04:06.354Z,16.98
2023-04-18T02:06:32.887Z,19.50
2023-04-18T02:08:59.456Z,16.90
2023-04-18T02:11:26.250Z,16.13
2023-04-18T02:13:52.776Z,18.50
2023-04-18T02:16:19.345Z,13.75
2023-04-18T02:18:47.067Z,17.65
2023-04-18T02:21:13.589Z,16.38
2023-04-18T02:23:40.189Z,17.65
2023-04-18T02:26:06.742Z,17.55
2023-04-18T02:28:33.325Z,19.20
2023-04-18T02:31:00.094Z,15.60
2023-04-18T02:33:26.630Z,16.42
2023-04-18T02:35:53.193Z,18.67
2023-04-18T02:38:19.805Z,18.38
2023-04-18T02:40:46.434Z,16.05
2023-04-18T02:43:13.013Z,19.23
2023-04-18T02:45:39.626Z,20.30
2023-04-18T02:48:06.283Z,17.10
2023-04-18T02:50:32.868Z,17.08
2023-04-18T02:52:59.379Z,17.13
2023-04-18T02:55:26.925Z,18.55
2023-04-18T02:57:53.560Z,16.90
2023-04-18T03:00:20.224Z,18.50
2023-04-18T03:02:46.865Z,17.92
2023-04-18T03:05:13.538Z,17.15
2023-04-18T03:07:40.124Z,17.00
2023-04-18T03:10:07.091Z,15.25
2023-04-18T03:12:33.768Z,17.40
2023-04-18T03:15:00.371Z,15.98
2023-04-18T03:17:27.106Z,16.42
2023-04-18T03:19:53.744Z,12.52
2023-04-18T03:22:20.422Z,12.48
2023-04-18T03:24:46.975Z,15.73
2023-04-18T03:27:13.914Z,18.10
2023-04-18T03:29:40.445Z,12.52
2023-04-18T03:32:06.967Z,16.17
2023-04-18T03:34:33.573Z,14.90
2023-04-18T03:37:00.160Z,16.00
2023-04-18T03:39:26.723Z,12.52
2023-04-18T03:41:53.434Z,14.55
2023-04-18T03:44:19.985Z,16.33
2023-04-18T03:46:46.620Z,13.57
2023-04-18T03:49:13.263Z,16.50
2023-04-18T03:51:47.246Z,16.63
2023-04-18T03:54:15.347Z,17.83
2023-04-18T03:56:42.508Z,13.25
2023-04-18T03:59:09.067Z,17.05
2023-04-18T04:01:35.723Z,14.98
2023-04-18T04:04:03.089Z,17.65
2023-04-18T04:06:30.101Z,12.32
2023-04-18T04:08:56.638Z,14.85
2023-04-18T04:11:23.402Z,14.88
2023-04-18T04:13:49.939Z,11.80
2023-04-18T04:16:16.574Z,13.52
2023-04-18T04:18:43.126Z,14.27
2023-04-18T04:21:09.749Z,14.20
2023-04-18T04:23:36.332Z,13.63
2023-04-18T04:26:05.691Z,15.30
2023-04-18T04:30:59.293Z,16.60
2023-04-18T04:33:28.505Z,15.95
2023-04-18T04:35:55.503Z,16.42
2023-04-18T04:38:25.127Z,15.98
2023-04-18T04:40:52.926Z,15.23
2023-04-18T04:43:20.484Z,17.02
2023-04-18T04:45:52.603Z,13.75
2023-04-18T04:48:20.311Z,13.93
2023-04-18T04:50:56.333Z,17.15
2023-04-18T04:53:24.116Z,15.90
2023-04-18T04:55:51.762Z,16.55
2023-04-18T04:58:19.080Z,15.95
2023-04-18T05:00:46.026Z,16.73
2023-04-18T05:03:12.661Z,18.55
2023-04-18T05:05:39.706Z,15.18
2023-04-18T05:08:06.498Z,14.75
2023-04-18T05:10:33.172Z,14.93
2023-04-18T05:12:59.664Z,17.17
2023-04-18T05:15:26.190Z,16.20
2023-04-18T05:17:52.929Z,16.33
2023-04-18T05:20:19.522Z,16.45
2023-04-18T05:22:46.020Z,15.85
2023-04-18T05:25:12.746Z,15.57
2023-04-18T05:27:39.533Z,12.10
2023-04-18T05:30:06.907Z,11.00
2023-04-18T05:32:33.519Z,12.73
2023-04-18T05:35:00.110Z,13.35
2023-04-18T05:37:26.694Z,11.25
2023-04-18T05:39:53.227Z,14.70
2023-04-18T05:42:19.769Z,15.82
2023-04-18T05:44:46.286Z,16.17
2023-04-18T05:47:12.808Z,18.15
2023-04-18T05:49:39.333Z,16.42
2023-04-18T05:52:05.884Z,13.13
2023-04-18T05:54:32.443Z,13.73
2023-04-18T05:56:59.677Z,13.40
2023-04-18T05:59:26.960Z,14.20
2023-04-18T06:01:53.574Z,12.93
2023-04-18T06:04:20.844Z,11.27
2023-04-18T06:06:47.750Z,13.73
2023-04-18T06:09:14.292Z,12.85
2023-04-18T06:11:40.849Z,10.90
2023-04-18T06:14:07.898Z,11.52
2023-04-18T06:16:36.691Z,10.48
2023-04-18T06:19:05.096Z,9.95
2023-04-18T06:21:32.121Z,12.38
2023-04-18T06:23:58.719Z,9.88
2023-04-18T06:26:25.254Z,11.57
2023-04-18T06:28:51.812Z,12.63
2023-04-18T06:31:18.570Z,10.82
2023-04-18T06:33:45.179Z,12.63
2023-04-18T06:36:11.739Z,12.93
2023-04-18T06:38:38.299Z,11.60
2023-04-18T06:41:04.962Z,5.47
2023-04-18T06:43:31.613Z,12.52
2023-04-18T06:45:59.123Z,13.80
2023-04-18T06:48:25.691Z,12.40
2023-04-18T06:50:52.210Z,13.90
2023-04-18T06:53:18.739Z,12.75
2023-04-18T06:55:45.363Z,13.93
2023-04-18T06:58:13.807Z,15.15
2023-04-18T07:00:40.569Z,15.15
2023-04-18T07:03:11.304Z,14.13
2023-04-18T07:05:41.716Z,14.60
2023-04-18T07:08:08.354Z,8.35
2023-04-18T07:10:34.983Z,11.48
2023-04-18T07:13:01.683Z,14.43
2023-04-18T07:15:28.534Z,12.25
2023-04-18T07:17:55.285Z,14.80
2023-04-18T07:20:21.861Z,14.45
2023-04-18T07:22:48.690Z,12.95
2023-04-18T07:25:15.281Z,13.27
2023-04-18T07:27:41.874Z,11.40
2023-04-18T07:30:09.152Z,12.55
2023-04-18T07:32:35.771Z,13.38
2023-04-18T07:35:03.372Z,10.82
2023-04-18T07:37:30.022Z,13.65
2023-04-18T07:39:56.561Z,12.35
2023-04-18T07:42:23.117Z,11.88
2023-04-18T07:44:49.731Z,12.98
2023-04-18T07:47:16.477Z,13.38
2023-04-18T07:49:43.002Z,9.95
2023-04-18T07:52:09.562Z,10.23
2023-04-18T07:54:36.142Z,10.27
2023-04-18T07:57:02.639Z,14.52
2023-04-18T07:59:29.759Z,10.88
2023-04-18T08:01:56.399Z,13.23
2023-04-18T08:04:23.255Z,9.95
2023-04-18T08:06:49.908Z,9.90
2023-04-18T08:09:18.435Z,12.82
2023-04-18T08:11:45.132Z,13.90
2023-04-18T08:14:11.990Z,10.55
2023-04-18T08:16:39.227Z,10.50
2023-04-18T08:19:06.211Z,8.65
2023-04-18T08:21:32.923Z,12.40
2023-04-18T08:23:59.537Z,10.75
2023-04-18T08:26:26.868Z,12.40
2023-04-18T08:28:53.790Z,12.57
2023-04-18T08:31:20.697Z,11.60
2023-04-18T08:33:47.279Z,12.63
2023-04-18T08:36:14.040Z,11.55
2023-04-18T08:38:40.560Z,10.15
2023-04-18T08:41:08.253Z,12.20
2023-04-18T08:43:34.803Z,7.70
2023-04-18T08:46:01.700Z,11.40
2023-04-18T08:48:28.378Z,10.13
2023-04-18T08:50:59.354Z,11.52
2023-04-18T08:53:26.890Z,10.80
2023-04-18T08:55:57.989Z,10.73
2023-04-18T08:58:27.592Z,10.30
2023-04-18T09:00:54.925Z,10.93
2023-04-18T09:03:42.299Z,13.93
2023-04-18T09:06:18.960Z,9.00
2023-04-18T09:08:59.199Z,7.10
2023-04-18T09:11:30.265Z,10.15
2023-04-18T09:13:59.055Z,11.73
2023-04-18T09:16:27.436Z,9.18
2023-04-18T09:19:16.262Z,10.10
2023-04-18T09:21:48.722Z,9.18
2023-04-18T09:24:21.129Z,9.75
2023-04-18T09:26:49.801Z,12.18
2023-04-18T09:29:22.273Z,14.07
2023-04-18T09:32:01.065Z,12.02
2023-04-18T09:34:28.987Z,12.15
2023-04-18T09:37:13.577Z,12.48
2023-04-18T09:39:42.428Z,10.50
2023-04-18T09:42:10.516Z,10.00
2023-04-18T09:44:38.442Z,11.05
2023-04-18T09:47:07.858Z,10.57
2023-04-18T09:52:06.309Z,12.57
2023-04-18T09:54:35.396Z,10.68
2023-04-18T09:57:05.998Z,13.52
2023-04-18T09:59:48.101Z,13.52
2023-04-18T10:02:19.750Z,9.43
2023-04-18T10:04:47.350Z,14.57
2023-04-18T10:07:16.774Z,16.67
2023-04-18T10:09:46.773Z,14.35
2023-04-18T10:12:14.065Z,14.10
2023-04-18T10:14:43.195Z,15.55
2023-04-18T10:17:11.061Z,12.57
2023-04-18T10:19:41.266Z,15.00
2023-04-18T10:22:08.108Z,12.55
2023-04-18T10:24:53.600Z,15.25
2023-04-18T10:27:49.344Z,10.27
2023-04-18T10:30:16.699Z,11.35
2023-04-18T10:32:45.495Z,11.38
2023-04-18T10:35:12.226Z,13.93
2023-04-18T10:37:59.784Z,14.25
2023-04-18T10:40:35.438Z,13.30
2023-04-18T10:43:02.193Z,11.38
2023-04-18T10:45:31.372Z,17.15
2023-04-18T10:48:31.298Z,13.63
2023-04-18T10:51:17.761Z,13.63
2023-04-18T10:53:49.951Z,11.82
2023-04-18T10:56:16.833Z,10.70
2023-04-18T10:58:50.014Z,13.15
2023-04-18T11:01:31.660Z,12.40
2023-04-18T11:03:59.171Z,15.63
2023-04-18T11:06:27.216Z,17.88
2023-04-18T11:09:13.776Z,16.30
2023-04-18T11:11:41.862Z,13.45
2023-04-18T11:14:08.453Z,16.75
2023-04-18T11:16:35.654Z,17.98
2023-04-18T11:19:21.215Z,16.75
2023-04-18T11:21:47.750Z,15.50
2023-04-18T11:24:22.027Z,18.15
2023-04-18T11:26:48.588Z,18.33
2023-04-18T11:29:17.994Z,14.63
2023-04-18T11:34:16.767Z,17.00
2023-04-18T11:36:43.470Z,18.13
2023-04-18T11:39:10.544Z,15.15
2023-04-18T11:41:37.121Z,16.27
2023-04-18T11:44:06.329Z,16.60
2023-04-18T11:46:39.855Z,17.13
2023-04-18T11:49:06.376Z,17.65
2023-04-18T11:51:44.709Z,15.60
2023-04-18T11:54:42.995Z,17.80
2023-04-18T11:57:22.386Z,15.73
2023-04-18T11:59:57.852Z,15.82
2023-04-18T12:05:00.210Z,15.02
2023-04-18T12:07:40.014Z,14.85
2023-04-18T12:10:28.240Z,14.90
2023-04-18T12:12:57.557Z,16.77
2023-04-18T12:18:02.543Z,15.23
2023-04-18T12:20:51.859Z,14.95
2023-04-18T12:23:39.018Z,12.80
2023-04-18T12:26:21.078Z,13.32
2023-04-18T12:28:50.386Z,13.90
2023-04-18T12:33:43.686Z,13.93
2023-04-18T12:36:12.786Z,16.90
2023-04-18T12:38:39.539Z,16.77
2023-04-18T12:41:06.302Z,16.33
2023-04-18T12:43:32.855Z,18.25
2023-04-18T12:45:59.974Z,17.63
2023-04-18T12:48:26.554Z,16.20
2023-04-18T12:50:53.107Z,13.07
2023-04-18T12:53:19.683Z,15.10
2023-04-18T12:55:46.266Z,16.45
2023-04-18T12:58:18.399Z,16.10
2023-04-18T13:00:44.940Z,17.75
2023-04-18T13:03:13.469Z,12.95
2023-04-18T13:05:40.453Z,13.18
2023-04-18T13:08:16.141Z,14.45
2023-04-18T13:10:45.101Z,13.48
2023-04-18T13:13:11.912Z,14.60
2023-04-18T13:15:38.778Z,13.75
2023-04-18T13:18:06.742Z,14.40
2023-04-18T13:20:34.440Z,14.25
2023-04-18T13:23:02.810Z,14.05
2023-04-18T13:25:29.603Z,13.93
2023-04-18T13:27:58.241Z,13.52
2023-04-18T13:30:24.797Z,13.30
2023-04-18T13:32:51.761Z,12.70
2023-04-18T13:35:18.527Z,14.98
2023-04-18T13:37:46.117Z,13.95
2023-04-18T13:40:14.456Z,13.50
2023-04-18T13:42:41.088Z,13.48
2023-04-18T13:45:08.011Z,13.85
2023-04-18T13:47:34.995Z,12.73
2023-04-18T13:50:01.717Z,11.55
2023-04-18T13:52:28.434Z,10.65
2023-04-18T13:54:55.019Z,7.70
2023-04-18T13:57:22.026Z,12.75
2023-04-18T13:59:48.632Z,10.32
2023-04-18T14:02:15.300Z,9.45
2023-04-18T14:04:42.004Z,12.27
2023-04-18T14:07:09.131Z,11.73
2023-04-18T14:09:35.781Z,10.63
2023-04-18T14:12:02.319Z,12.02
2023-04-18T14:14:29.172Z,12.70
2023-04-18T14:16:55.806Z,12.90
2023-04-18T14:19:22.423Z,11.70
2023-04-18T14:21:48.953Z,12.25
2023-04-18T14:24:15.707Z,10.30
2023-04-18T14:26:42.456Z,11.32
2023-04-18T14:29:09.013Z,12.00
2023-04-18T14:31:35.776Z,12.02
2023-04-18T14:34:02.702Z,12.55
2023-04-18T14:36:29.417Z,12.02
2023-04-18T14:38:55.997Z,11.73
2023-04-18T14:41:23.889Z,11.70
2023-04-18T14:43:50.440Z,10.60
2023-04-18T14:46:17.092Z,10.75
2023-04-18T14:48:50.014Z,11.10
2023-04-18T14:51:16.869Z,8.45
2023-04-18T14:53:44.610Z,9.07
2023-04-18T14:56:11.397Z,11.13
2023-04-18T14:58:38.042Z,12.10
2023-04-18T15:01:05.751Z,11.30
2023-04-18T15:03:32.587Z,9.45
2023-04-18T15:05:59.280Z,10.75
2023-04-18T15:08:25.990Z,9.68
2023-04-18T15:10:52.581Z,9.18
2023-04-18T15:13:19.453Z,11.45
2023-04-18T15:15:53.984Z,10.50
2023-04-18T15:18:21.209Z,9.13
2023-04-18T15:20:48.244Z,10.60
2023-04-18T15:23:15.388Z,9.98
2023-04-18T15:25:44.312Z,9.40
2023-04-18T15:28:13.273Z,10.07
2023-04-18T15:30:40.180Z,19.27
2023-04-18T15:33:07.221Z,12.77
2023-04-18T15:35:34.344Z,12.60
2023-04-18T15:38:01.011Z,9.48
2023-04-18T15:40:27.627Z,11.13
2023-04-18T15:42:54.564Z,10.40
2023-04-18T15:45:21.802Z,12.35
2023-04-18T15:47:48.459Z,11.88
2023-04-18T15:50:18.224Z,10.63
2023-04-18T15:52:44.769Z,11.45
2023-04-18T15:55:22.195Z,12.63
2023-04-18T15:57:48.846Z,12.63
2023-04-18T16:00:16.058Z,13.27
2023-04-18T16:02:46.671Z,12.30
2023-04-18T16:05:14.068Z,12.05
2023-04-18T16:07:42.228Z,12.93
2023-04-18T16:10:10.558Z,14.20
2023-04-18T16:12:38.665Z,13.77
2023-04-18T16:15:06.985Z,12.48
2023-04-18T16:17:33.602Z,13.27
2023-04-18T16:20:00.309Z,12.57
2023-04-18T16:22:26.872Z,13.75
2023-04-18T16:24:53.404Z,13.90
2023-04-18T16:27:20.000Z,14.90
2023-04-18T16:29:47.229Z,13.95
2023-04-18T16:32:13.824Z,15.27
2023-04-18T16:34:40.351Z,13.88
2023-04-18T16:37:06.881Z,12.57
2023-04-18T16:39:33.541Z,15.07
2023-04-18T16:42:00.064Z,15.35
2023-04-18T16:44:26.629Z,14.80
2023-04-18T16:46:53.178Z,14.60
2023-04-18T16:49:20.498Z,16.83
2023-04-18T16:51:47.111Z,13.57
2023-04-18T16:54:13.971Z,13.23
2023-04-18T16:56:41.387Z,11.63
2023-04-18T16:59:09.388Z,15.40
2023-04-18T17:01:36.216Z,14.65
2023-04-18T17:04:02.992Z,15.60
2023-04-18T17:06:31.513Z,14.38
2023-04-18T17:08:58.907Z,14.93
2023-04-18T17:11:25.539Z,14.52
2023-04-18T17:13:52.233Z,13.60
2023-04-18T17:16:18.887Z,14.70
2023-04-18T17:18:45.449Z,14.27
2023-04-18T17:21:12.594Z,12.57
2023-04-18T17:23:41.570Z,12.35
2023-04-18T17:26:09.214Z,12.55
2023-04-18T17:28:36.480Z,12.52
2023-04-18T17:31:03.212Z,13.98
2023-04-18T17:33:30.388Z,13.98
2023-04-18T17:35:57.437Z,12.68
2023-04-18T17:38:24.138Z,11.77
2023-04-18T17:41:01.906Z,12.73
2023-04-18T17:43:31.008Z,13.30
2023-04-18T17:45:59.662Z,13.65
2023-04-18T17:48:28.433Z,15.27
2023-04-18T17:50:54.979Z,13.48
2023-04-18T17:53:22.345Z,13.23
2023-04-18T17:55:52.054Z,12.55
2023-04-18T17:58:19.821Z,13.70
2023-04-18T18:00:46.552Z,13.73
2023-04-18T18:03:14.565Z,12.85
2023-04-18T18:05:41.931Z,13.45
2023-04-18T18:08:11.183Z,13.20
2023-04-18T18:13:04.712Z,12.40
2023-04-18T18:15:31.968Z,13.00
2023-04-18T18:17:59.579Z,13.90
2023-04-18T18:20:27.366Z,13.68
2023-04-18T18:23:00.002Z,13.75
2023-04-18T18:25:27.458Z,12.80
2023-04-18T18:27:54.588Z,13.45
2023-04-18T18:30:21.143Z,12.98
2023-04-18T18:32:47.879Z,13.65
2023-04-18T18:35:14.448Z,13.25
2023-04-18T18:37:41.069Z,13.23
2023-04-18T18:40:08.482Z,13.80
2023-04-18T18:42:35.169Z,14.25
2023-04-18T18:45:02.726Z,13.52
2023-04-18T18:47:30.566Z,12.93
2023-04-18T18:49:57.273Z,17.33
2023-04-18T18:52:24.783Z,14.43
2023-04-18T18:54:51.427Z,13.00
2023-04-18T18:57:17.961Z,14.07
2023-04-18T18:59:44.499Z,13.45
2023-04-18T19:02:11.601Z,13.23
2023-04-18T19:04:38.377Z,14.70
2023-04-18T19:07:06.007Z,13.30
2023-04-18T19:09:32.699Z,13.93
2023-04-18T19:11:59.364Z,12.68
2023-04-18T19:14:25.967Z,13.20
2023-04-18T19:16:53.092Z,12.93
2023-04-18T19:19:19.602Z,13.27
2023-04-18T19:21:46.287Z,13.45
2023-04-18T19:24:13.315Z,12.70
2023-04-18T19:26:40.010Z,14.77
2023-04-18T19:29:07.839Z,13.38
2023-04-18T19:31:35.121Z,13.57
2023-04-18T19:34:02.356Z,13.20
2023-04-18T19:36:28.864Z,12.77
2023-04-18T19:38:55.380Z,12.73
2023-04-18T19:41:21.980Z,13.10
2023-04-18T19:43:48.567Z,12.48
2023-04-18T19:46:15.460Z,12.82
2023-04-18T19:48:42.080Z,11.75
2023-04-18T19:51:08.567Z,13.65
2023-04-18T19:53:35.070Z,13.32
2023-04-18T19:56:01.702Z,13.98
2023-04-18T19:58:45.009Z,12.63
2023-04-18T20:01:12.864Z,12.48
2023-04-18T20:03:40.989Z,13.70
2023-04-18T20:06:08.336Z,10.75
2023-04-18T20:08:39.436Z,11.32
2023-04-18T20:11:10.434Z,10.27
2023-04-18T20:13:37.502Z,10.38
2023-04-18T20:16:05.370Z,11.48
2023-04-18T20:18:32.502Z,10.68
2023-04-18T20:20:59.033Z,11.30
2023-04-18T20:23:25.551Z,11.05
2023-04-18T20:25:52.114Z,11.73
2023-04-18T20:28:18.660Z,10.90
2023-04-18T20:30:45.707Z,11.38
2023-04-18T20:33:12.518Z,11.48
2023-04-18T20:35:39.064Z,7.63
2023-04-18T20:38:06.534Z,11.57
2023-04-18T20:40:34.208Z,10.90
2023-04-18T20:43:02.941Z,9.00
2023-04-18T20:45:29.971Z,11.02
2023-04-18T20:47:56.906Z,10.40
2023-04-18T20:50:23.520Z,10.52
2023-04-18T20:52:50.090Z,9.32
2023-04-18T20:55:19.420Z,12.00
2023-04-18T21:00:14.049Z,11.82
2023-04-18T21:02:41.654Z,11.52
2023-04-18T21:05:08.846Z,13.07
2023-04-18T21:07:36.354Z,11.07
2023-04-18T21:10:04.003Z,12.73
2023-04-18T21:12:30.588Z,9.57
2023-04-18T21:14:57.098Z,13.70
2023-04-18T21:17:25.547Z,12.70
2023-04-18T21:19:52.621Z,12.65
2023-04-18T21:22:19.282Z,13.27
2023-04-18T21:24:46.795Z,13.90
2023-04-18T21:27:15.064Z,11.25
2023-04-18T21:29:41.814Z,11.98
2023-04-18T21:32:08.373Z,12.02
2023-04-18T21:34:34.854Z,12.15
2023-04-18T21:37:01.439Z,13.30
2023-04-18T21:39:28.023Z,11.32
2023-04-18T21:41:54.530Z,8.25
2023-04-18T21:44:21.122Z,12.45
2023-04-18T21:46:47.652Z,12.70
2023-04-18T21:49:14.370Z,12.32
2023-04-18T21:51:40.882Z,11.85
2023-04-18T21:54:07.908Z,13.27
2023-04-18T21:56:34.444Z,11.10
2023-04-18T21:59:01.018Z,8.57
2023-04-18T22:01:27.704Z,12.80
2023-04-18T22:03:54.356Z,13.57
2023-04-18T22:06:23.095Z,12.68
2023-04-18T22:08:50.041Z,12.90
2023-04-18T22:11:16.661Z,12.30
2023-04-18T22:13:45.110Z,12.85
2023-04-18T22:16:11.977Z,11.95
2023-04-18T22:18:38.550Z,13.30
2023-04-18T22:21:05.280Z,11.38
2023-04-18T22:23:31.935Z,11.88
2023-04-18T22:25:58.548Z,10.68
2023-04-18T22:28:27.756Z,17.73
2023-04-18T22:30:54.367Z,12.95
2023-04-18T22:33:20.942Z,15.48
2023-04-18T22:35:48.570Z,12.10
2023-04-18T22:38:15.361Z,10.13
2023-04-18T22:40:42.081Z,12.60
2023-04-18T22:43:08.585Z,11.23
2023-04-18T22:45:35.294Z,11.75
2023-04-18T22:48:01.895Z,8.10
2023-04-18T22:50:30.198Z,7.57
2023-04-18T22:52:57.506Z,11.57
2023-04-18T22:55:24.098Z,11.30
2023-04-18T22:57:50.647Z,11.10
2023-04-18T23:00:17.344Z,9.35
2023-04-18T23:02:44.089Z,10.40
2023-04-18T23:05:11.537Z,10.73
2023-04-18T23:07:38.062Z,10.98
2023-04-18T23:10:06.713Z,11.02
2023-04-18T23:12:33.368Z,10.60
2023-04-18T23:14:59.941Z,10.80
2023-04-18T23:17:26.508Z,10.85
2023-04-18T23:19:53.041Z,11.27
2023-04-18T23:22:20.393Z,11.05
2023-04-18T23:24:46.899Z,9.73
2023-04-18T23:27:13.393Z,8.63
2023-04-18T23:29:40.016Z,10.63
2023-04-18T23:32:08.232Z,10.30
2023-04-18T23:34:34.778Z,9.93
2023-04-18T23:37:01.320Z,13.20
2023-04-18T23:39:27.881Z,10.82
2023-04-18T23:41:54.457Z,8.90
2023-04-18T23:44:20.976Z,9.77
2023-04-18T23:46:48.063Z,10.20
2023-04-18T23:49:15.405Z,9.88
2023-04-18T23:51:42.498Z,9.20
2023-04-18T23:54:09.036Z,7.68
2023-04-18T23:56:35.744Z,7.72
2023-04-18T23:59:02.468Z,7.63
